sensor_id;sensor_type;location;lat;lon;timestamp;pressure;altitude;pressure_sealevel;temperature;humidity
31483;BME280;18103;52.246;8.052;2023-07-29T00:01:05;99554.97;;;20.57;86.19
31483;BME280;18103;52.246;8.052;2023-07-29T00:03:30;99560.75;;;20.54;86.23
31483;BME280;18103;52.246;8.052;2023-07-29T00:05:58;99564.69;;;20.51;86.26
31483;BME280;18103;52.246;8.052;2023-07-29T00:08:29;99557.03;;;20.55;86.09
31483;BME280;18103;52.246;8.052;2023-07-29T00:10:54;99563.25;;;20.56;86.08
31483;BME280;18103;52.246;8.052;2023-07-29T00:13:25;99565.91;;;20.56;86.05
31483;BME280;18103;52.246;8.052;2023-07-29T00:15:54;99568.19;;;20.59;85.80
31483;BME280;18103;52.246;8.052;2023-07-29T00:18:19;99570.88;;;20.59;85.76
31483;BME280;18103;52.246;8.052;2023-07-29T00:20:45;99563.03;;;20.57;86.29
31483;BME280;18103;52.246;8.052;2023-07-29T00:23:10;99554.56;;;20.54;86.08
31483;BME280;18103;52.246;8.052;2023-07-29T00:25:36;99561.56;;;20.48;86.31
31483;BME280;18103;52.246;8.052;2023-07-29T00:28:03;99557.25;;;20.54;86.06
31483;BME280;18103;52.246;8.052;2023-07-29T00:30:29;99567.38;;;20.58;85.92
31483;BME280;18103;52.246;8.052;2023-07-29T00:32:57;99561.38;;;20.63;85.64
31483;BME280;18103;52.246;8.052;2023-07-29T00:35:22;99558.91;;;20.61;85.69
31483;BME280;18103;52.246;8.052;2023-07-29T00:37:47;99559.50;;;20.63;85.58
31483;BME280;18103;52.246;8.052;2023-07-29T00:40:23;99563.47;;;20.67;85.11
31483;BME280;18103;52.246;8.052;2023-07-29T00:42:53;99556.25;;;20.68;85.26
31483;BME280;18103;52.246;8.052;2023-07-29T00:45:18;99544.28;;;20.64;84.92
31483;BME280;18103;52.246;8.052;2023-07-29T00:47:47;99542.59;;;20.63;84.87
31483;BME280;18103;52.246;8.052;2023-07-29T00:50:13;99541.81;;;20.69;84.38
31483;BME280;18103;52.246;8.052;2023-07-29T00:52:40;99543.22;;;20.65;84.82
31483;BME280;18103;52.246;8.052;2023-07-29T00:55:07;99546.34;;;20.68;84.41
31483;BME280;18103;52.246;8.052;2023-07-29T00:57:39;99542.00;;;20.67;84.31
31483;BME280;18103;52.246;8.052;2023-07-29T01:00:10;99538.47;;;20.67;84.67
31483;BME280;18103;52.246;8.052;2023-07-29T01:02:36;99534.81;;;20.68;84.48
31483;BME280;18103;52.246;8.052;2023-07-29T01:05:02;99532.50;;;20.65;84.57
31483;BME280;18103;52.246;8.052;2023-07-29T01:07:41;99521.56;;;20.53;85.37
31483;BME280;18103;52.246;8.052;2023-07-29T01:10:31;99519.91;;;20.52;84.95
31483;BME280;18103;52.246;8.052;2023-07-29T01:15:51;99509.19;;;20.52;85.28
31483;BME280;18103;52.246;8.052;2023-07-29T01:18:23;99516.41;;;20.45;85.26
31483;BME280;18103;52.246;8.052;2023-07-29T01:20:50;99525.69;;;20.49;85.77
31483;BME280;18103;52.246;8.052;2023-07-29T01:23:25;99528.38;;;20.49;85.53
31483;BME280;18103;52.246;8.052;2023-07-29T01:25:56;99524.66;;;20.43;85.50
31483;BME280;18103;52.246;8.052;2023-07-29T01:28:26;99528.16;;;20.44;85.27
31483;BME280;18103;52.246;8.052;2023-07-29T01:30:57;99531.88;;;20.36;85.91
31483;BME280;18103;52.246;8.052;2023-07-29T01:33:30;99532.50;;;20.45;85.22
31483;BME280;18103;52.246;8.052;2023-07-29T01:36:07;99525.50;;;20.37;85.97
31483;BME280;18103;52.246;8.052;2023-07-29T01:38:38;99527.31;;;20.30;85.91
31483;BME280;18103;52.246;8.052;2023-07-29T01:41:07;99524.84;;;20.28;85.90
31483;BME280;18103;52.246;8.052;2023-07-29T01:43:33;99527.72;;;20.20;86.45
31483;BME280;18103;52.246;8.052;2023-07-29T01:46:00;99520.94;;;20.17;86.47
31483;BME280;18103;52.246;8.052;2023-07-29T01:48:26;99526.28;;;20.17;86.39
31483;BME280;18103;52.246;8.052;2023-07-29T01:50:55;99525.66;;;20.15;86.14
31483;BME280;18103;52.246;8.052;2023-07-29T01:53:22;99511.44;;;20.15;86.01
31483;BME280;18103;52.246;8.052;2023-07-29T01:55:50;99507.94;;;20.21;85.76
31483;BME280;18103;52.246;8.052;2023-07-29T01:58:18;99513.47;;;20.13;85.93
31483;BME280;18103;52.246;8.052;2023-07-29T02:00:43;99502.97;;;20.11;85.85
31483;BME280;18103;52.246;8.052;2023-07-29T02:03:08;99496.81;;;20.11;85.83
31483;BME280;18103;52.246;8.052;2023-07-29T02:05:34;99490.63;;;20.04;86.05
31483;BME280;18103;52.246;8.052;2023-07-29T02:07:59;99478.25;;;20.03;86.04
31483;BME280;18103;52.246;8.052;2023-07-29T02:10:24;99482.97;;;20.00;86.06
31483;BME280;18103;52.246;8.052;2023-07-29T02:12:52;99479.06;;;19.96;85.61
31483;BME280;18103;52.246;8.052;2023-07-29T02:15:20;99472.25;;;19.94;85.55
31483;BME280;18103;52.246;8.052;2023-07-29T02:17:45;99470.38;;;19.94;85.89
31483;BME280;18103;52.246;8.052;2023-07-29T02:20:14;99484.00;;;19.93;86.57
31483;BME280;18103;52.246;8.052;2023-07-29T02:22:41;99487.50;;;20.00;86.28
31483;BME280;18103;52.246;8.052;2023-07-29T02:25:07;99492.25;;;19.98;86.28
31483;BME280;18103;52.246;8.052;2023-07-29T02:27:35;99484.81;;;19.93;86.57
31483;BME280;18103;52.246;8.052;2023-07-29T02:30:00;99493.69;;;19.94;86.49
31483;BME280;18103;52.246;8.052;2023-07-29T02:32:31;99493.47;;;19.95;86.52
31483;BME280;18103;52.246;8.052;2023-07-29T02:34:56;99488.72;;;19.91;86.48
31483;BME280;18103;52.246;8.052;2023-07-29T02:37:22;99474.72;;;19.89;86.95
31483;BME280;18103;52.246;8.052;2023-07-29T02:39:49;99486.25;;;19.96;86.72
31483;BME280;18103;52.246;8.052;2023-07-29T02:42:17;99491.00;;;20.00;86.14
31483;BME280;18103;52.246;8.052;2023-07-29T02:44:44;99486.88;;;20.05;86.30
31483;BME280;18103;52.246;8.052;2023-07-29T02:47:12;99485.84;;;19.99;86.51
31483;BME280;18103;52.246;8.052;2023-07-29T02:49:40;99492.63;;;19.95;87.30
31483;BME280;18103;52.246;8.052;2023-07-29T02:52:05;99490.81;;;20.02;86.21
31483;BME280;18103;52.246;8.052;2023-07-29T02:54:30;99488.75;;;20.04;86.00
31483;BME280;18103;52.246;8.052;2023-07-29T02:56:58;99478.44;;;20.01;86.65
31483;BME280;18103;52.246;8.052;2023-07-29T02:59:24;99480.47;;;19.99;87.15
31483;BME280;18103;52.246;8.052;2023-07-29T03:01:49;99476.16;;;20.05;86.25
31483;BME280;18103;52.246;8.052;2023-07-29T03:04:15;99476.19;;;19.98;87.10
31483;BME280;18103;52.246;8.052;2023-07-29T03:06:43;99474.53;;;20.04;87.10
31483;BME280;18103;52.246;8.052;2023-07-29T03:09:08;99470.81;;;19.98;87.40
31483;BME280;18103;52.246;8.052;2023-07-29T03:11:34;99467.53;;;20.03;87.42
31483;BME280;18103;52.246;8.052;2023-07-29T03:14:00;99458.88;;;20.07;86.88
31483;BME280;18103;52.246;8.052;2023-07-29T03:16:27;99467.09;;;20.06;87.59
31483;BME280;18103;52.246;8.052;2023-07-29T03:18:55;99458.28;;;20.12;86.85
31483;BME280;18103;52.246;8.052;2023-07-29T03:21:23;99463.00;;;20.16;86.64
31483;BME280;18103;52.246;8.052;2023-07-29T03:23:50;99464.84;;;20.09;86.96
31483;BME280;18103;52.246;8.052;2023-07-29T03:26:16;99466.91;;;20.14;87.48
31483;BME280;18103;52.246;8.052;2023-07-29T03:28:44;99466.09;;;20.13;86.17
31483;BME280;18103;52.246;8.052;2023-07-29T03:31:10;99475.78;;;20.21;86.37
31483;BME280;18103;52.246;8.052;2023-07-29T03:33:38;99471.06;;;20.23;85.57
31483;BME280;18103;52.246;8.052;2023-07-29T03:36:06;99474.13;;;20.20;85.79
31483;BME280;18103;52.246;8.052;2023-07-29T03:38:31;99471.03;;;20.16;86.30
31483;BME280;18103;52.246;8.052;2023-07-29T03:41:00;99475.16;;;20.06;86.62
31483;BME280;18103;52.246;8.052;2023-07-29T03:43:28;99473.28;;;20.06;86.73
31483;BME280;18103;52.246;8.052;2023-07-29T03:45:57;99481.75;;;20.10;87.03
31483;BME280;18103;52.246;8.052;2023-07-29T03:48:25;99474.53;;;20.10;86.93
31483;BME280;18103;52.246;8.052;2023-07-29T03:50:51;99484.03;;;20.20;87.18
31483;BME280;18103;52.246;8.052;2023-07-29T03:53:18;99484.00;;;20.13;86.93
31483;BME280;18103;52.246;8.052;2023-07-29T03:55:43;99483.41;;;20.24;86.04
31483;BME280;18103;52.246;8.052;2023-07-29T03:58:09;99484.44;;;20.23;86.18
31483;BME280;18103;52.246;8.052;2023-07-29T04:00:37;99491.44;;;20.24;85.58
31483;BME280;18103;52.246;8.052;2023-07-29T04:03:03;99487.13;;;20.16;87.50
31483;BME280;18103;52.246;8.052;2023-07-29T04:05:30;99477.84;;;20.19;87.21
31483;BME280;18103;52.246;8.052;2023-07-29T04:07:58;99469.16;;;20.10;87.33
31483;BME280;18103;52.246;8.052;2023-07-29T04:10:23;99455.16;;;20.28;86.61
31483;BME280;18103;52.246;8.052;2023-07-29T04:12:53;99462.38;;;20.28;86.74
31483;BME280;18103;52.246;8.052;2023-07-29T04:15:19;99450.00;;;20.27;86.39
31483;BME280;18103;52.246;8.052;2023-07-29T04:17:44;99449.19;;;20.26;86.57
31483;BME280;18103;52.246;8.052;2023-07-29T04:20:12;99465.50;;;20.31;86.24
31483;BME280;18103;52.246;8.052;2023-07-29T04:22:37;99458.47;;;20.30;86.23
31483;BME280;18103;52.246;8.052;2023-07-29T04:25:03;99449.41;;;20.25;86.77
31483;BME280;18103;52.246;8.052;2023-07-29T04:27:29;99445.28;;;20.22;86.90
31483;BME280;18103;52.246;8.052;2023-07-29T04:29:57;99443.63;;;20.34;86.43
31483;BME280;18103;52.246;8.052;2023-07-29T04:32:23;99443.00;;;20.32;86.26
31483;BME280;18103;52.246;8.052;2023-07-29T04:34:48;99438.88;;;20.37;85.91
31483;BME280;18103;52.246;8.052;2023-07-29T04:37:16;99438.88;;;20.30;86.11
31483;BME280;18103;52.246;8.052;2023-07-29T04:39:44;99445.69;;;20.32;86.02
31483;BME280;18103;52.246;8.052;2023-07-29T04:42:10;99442.78;;;20.34;86.13
31483;BME280;18103;52.246;8.052;2023-07-29T04:44:37;99442.56;;;20.35;86.35
31483;BME280;18103;52.246;8.052;2023-07-29T04:47:03;99444.22;;;20.37;86.20
31483;BME280;18103;52.246;8.052;2023-07-29T04:49:28;99445.88;;;20.38;85.64
31483;BME280;18103;52.246;8.052;2023-07-29T04:51:53;99452.91;;;20.32;86.79
31483;BME280;18103;52.246;8.052;2023-07-29T04:54:19;99446.31;;;20.41;85.87
31483;BME280;18103;52.246;8.052;2023-07-29T04:56:46;99450.84;;;20.27;86.54
31483;BME280;18103;52.246;8.052;2023-07-29T04:59:11;99452.91;;;20.39;86.16
31483;BME280;18103;52.246;8.052;2023-07-29T05:01:38;99459.50;;;20.23;87.70
31483;BME280;18103;52.246;8.052;2023-07-29T05:04:03;99448.56;;;20.24;86.93
31483;BME280;18103;52.246;8.052;2023-07-29T05:06:29;99452.06;;;20.18;87.23
31483;BME280;18103;52.246;8.052;2023-07-29T05:08:57;99442.19;;;20.32;86.55
31483;BME280;18103;52.246;8.052;2023-07-29T05:11:23;99439.91;;;20.35;86.20
31483;BME280;18103;52.246;8.052;2023-07-29T05:13:50;99437.44;;;20.34;86.55
31483;BME280;18103;52.246;8.052;2023-07-29T05:16:15;99430.22;;;20.34;86.50
31483;BME280;18103;52.246;8.052;2023-07-29T05:18:41;99425.25;;;20.38;86.23
31483;BME280;18103;52.246;8.052;2023-07-29T05:21:08;99432.69;;;20.43;86.14
31483;BME280;18103;52.246;8.052;2023-07-29T05:23:36;99431.47;;;20.32;87.08
31483;BME280;18103;52.246;8.052;2023-07-29T05:26:01;99431.47;;;20.39;86.22
31483;BME280;18103;52.246;8.052;2023-07-29T05:28:27;99425.25;;;20.38;87.12
31483;BME280;18103;52.246;8.052;2023-07-29T05:30:52;99429.38;;;20.41;86.48
31483;BME280;18103;52.246;8.052;2023-07-29T05:33:17;99430.63;;;20.38;86.78
31483;BME280;18103;52.246;8.052;2023-07-29T05:35:50;99432.06;;;20.47;85.94
31483;BME280;18103;52.246;8.052;2023-07-29T05:38:17;99421.56;;;20.46;85.81
31483;BME280;18103;52.246;8.052;2023-07-29T05:40:45;99428.38;;;20.42;86.01
31483;BME280;18103;52.246;8.052;2023-07-29T05:43:15;99426.06;;;20.52;85.67
31483;BME280;18103;52.246;8.052;2023-07-29T05:45:40;99435.56;;;20.55;85.37
31483;BME280;18103;52.246;8.052;2023-07-29T05:48:09;99439.25;;;20.54;86.13
31483;BME280;18103;52.246;8.052;2023-07-29T05:50:34;99442.56;;;20.56;85.47
31483;BME280;18103;52.246;8.052;2023-07-29T05:52:59;99448.56;;;20.51;85.68
31483;BME280;18103;52.246;8.052;2023-07-29T05:55:27;99452.47;;;20.55;85.36
31483;BME280;18103;52.246;8.052;2023-07-29T05:57:52;99460.75;;;20.47;86.16
31483;BME280;18103;52.246;8.052;2023-07-29T06:00:18;99458.47;;;20.50;85.71
31483;BME280;18103;52.246;8.052;2023-07-29T06:02:44;99453.50;;;20.47;85.91
31483;BME280;18103;52.246;8.052;2023-07-29T06:05:09;99456.81;;;20.49;86.22
31483;BME280;18103;52.246;8.052;2023-07-29T06:07:37;99458.06;;;20.47;86.86
31483;BME280;18103;52.246;8.052;2023-07-29T06:10:03;99459.91;;;20.46;86.13
31483;BME280;18103;52.246;8.052;2023-07-29T06:12:28;99456.59;;;20.58;86.28
31483;BME280;18103;52.246;8.052;2023-07-29T06:14:56;99455.97;;;20.56;85.86
31483;BME280;18103;52.246;8.052;2023-07-29T06:17:23;99439.69;;;20.57;85.83
31483;BME280;18103;52.246;8.052;2023-07-29T06:19:49;99433.69;;;20.62;85.23
31483;BME280;18103;52.246;8.052;2023-07-29T06:22:14;99435.75;;;20.66;84.68
31483;BME280;18103;52.246;8.052;2023-07-29T06:24:42;99433.72;;;20.68;84.89
31483;BME280;18103;52.246;8.052;2023-07-29T06:27:07;99435.59;;;20.68;84.78
31483;BME280;18103;52.246;8.052;2023-07-29T06:29:35;99426.69;;;20.74;83.85
31483;BME280;18103;52.246;8.052;2023-07-29T06:32:03;99416.16;;;20.73;83.90
31483;BME280;18103;52.246;8.052;2023-07-29T06:34:29;99427.91;;;20.65;85.81
31483;BME280;18103;52.246;8.052;2023-07-29T06:36:54;99443.00;;;20.73;84.54
31483;BME280;18103;52.246;8.052;2023-07-29T06:39:19;99446.09;;;20.43;87.55
31483;BME280;18103;52.246;8.052;2023-07-29T06:41:47;99455.78;;;20.50;86.68
31483;BME280;18103;52.246;8.052;2023-07-29T06:44:13;99461.34;;;20.56;86.18
31483;BME280;18103;52.246;8.052;2023-07-29T06:46:40;99467.75;;;20.68;85.68
31483;BME280;18103;52.246;8.052;2023-07-29T06:49:06;99468.13;;;20.65;85.56
31483;BME280;18103;52.246;8.052;2023-07-29T06:51:31;99468.38;;;20.57;86.08
31483;BME280;18103;52.246;8.052;2023-07-29T06:54:00;99472.47;;;20.59;86.31
31483;BME280;18103;52.246;8.052;2023-07-29T06:56:28;99465.91;;;20.42;87.27
31483;BME280;18103;52.246;8.052;2023-07-29T06:58:55;99463.63;;;20.39;87.55
31483;BME280;18103;52.246;8.052;2023-07-29T07:01:23;99469.59;;;20.47;86.89
31483;BME280;18103;52.246;8.052;2023-07-29T07:03:48;99475.78;;;20.61;85.47
31483;BME280;18103;52.246;8.052;2023-07-29T07:06:20;99481.56;;;20.58;86.23
31483;BME280;18103;52.246;8.052;2023-07-29T07:08:45;99479.09;;;20.50;86.88
31483;BME280;18103;52.246;8.052;2023-07-29T07:11:11;99474.34;;;20.59;85.57
31483;BME280;18103;52.246;8.052;2023-07-29T07:13:36;99467.31;;;20.58;86.34
31483;BME280;18103;52.246;8.052;2023-07-29T07:16:04;99469.41;;;20.62;85.94
31483;BME280;18103;52.246;8.052;2023-07-29T07:18:29;99461.56;;;20.67;86.17
31483;BME280;18103;52.246;8.052;2023-07-29T07:20:55;99471.88;;;20.64;85.96
31483;BME280;18103;52.246;8.052;2023-07-29T07:23:20;99467.94;;;20.60;86.45
31483;BME280;18103;52.246;8.052;2023-07-29T07:25:46;99471.22;;;20.62;85.91
31483;BME280;18103;52.246;8.052;2023-07-29T07:28:13;99474.75;;;20.69;85.45
31483;BME280;18103;52.246;8.052;2023-07-29T07:30:42;99477.84;;;20.73;85.29
31483;BME280;18103;52.246;8.052;2023-07-29T07:33:10;99474.53;;;20.50;86.67
31483;BME280;18103;52.246;8.052;2023-07-29T07:35:35;99476.84;;;20.47;87.50
31483;BME280;18103;52.246;8.052;2023-07-29T07:38:03;99492.06;;;20.26;89.90
31483;BME280;18103;52.246;8.052;2023-07-29T07:40:33;99499.91;;;20.34;89.73
31483;BME280;18103;52.246;8.052;2023-07-29T07:42:58;99498.47;;;20.39;89.38
31483;BME280;18103;52.246;8.052;2023-07-29T07:45:24;99496.59;;;20.39;89.15
31483;BME280;18103;52.246;8.052;2023-07-29T07:47:53;99498.47;;;20.25;89.46
31483;BME280;18103;52.246;8.052;2023-07-29T07:50:21;99492.03;;;19.93;90.79
31483;BME280;18103;52.246;8.052;2023-07-29T07:52:46;99495.16;;;20.10;89.83
31483;BME280;18103;52.246;8.052;2023-07-29T07:55:12;99498.22;;;20.20;89.55
31483;BME280;18103;52.246;8.052;2023-07-29T07:57:40;99505.03;;;20.16;90.30
31483;BME280;18103;52.246;8.052;2023-07-29T08:00:06;99507.94;;;20.21;89.82
31483;BME280;18103;52.246;8.052;2023-07-29T08:02:34;99510.41;;;20.23;90.28
31483;BME280;18103;52.246;8.052;2023-07-29T08:04:59;99506.72;;;20.37;89.34
31483;BME280;18103;52.246;8.052;2023-07-29T08:07:27;99511.25;;;20.37;89.87
31483;BME280;18103;52.246;8.052;2023-07-29T08:09:52;99508.78;;;20.22;88.98
31483;BME280;18103;52.246;8.052;2023-07-29T08:12:18;99504.22;;;20.22;88.57
31483;BME280;18103;52.246;8.052;2023-07-29T08:14:43;99505.03;;;20.03;86.97
31483;BME280;18103;52.246;8.052;2023-07-29T08:17:11;99508.53;;;19.96;86.57
31483;BME280;18103;52.246;8.052;2023-07-29T08:19:37;99505.00;;;19.82;86.64
31483;BME280;18103;52.246;8.052;2023-07-29T08:22:02;99517.78;;;19.87;84.93
31483;BME280;18103;52.246;8.052;2023-07-29T08:24:28;99521.63;;;19.78;85.41
31483;BME280;18103;52.246;8.052;2023-07-29T08:26:56;99521.94;;;19.96;85.63
31483;BME280;18103;52.246;8.052;2023-07-29T08:29:21;99532.22;;;19.93;85.15
31483;BME280;18103;52.246;8.052;2023-07-29T08:31:46;99528.13;;;20.04;86.16
31483;BME280;18103;52.246;8.052;2023-07-29T08:34:16;99531.84;;;20.09;85.48
31483;BME280;18103;52.246;8.052;2023-07-29T08:36:44;99523.78;;;20.16;84.77
31483;BME280;18103;52.246;8.052;2023-07-29T08:39:09;99525.22;;;19.98;84.56
31483;BME280;18103;52.246;8.052;2023-07-29T08:41:42;99527.72;;;20.07;85.35
31483;BME280;18103;52.246;8.052;2023-07-29T08:44:23;99527.91;;;20.05;84.92
31483;BME280;18103;52.246;8.052;2023-07-29T08:46:51;99528.91;;;19.97;85.63
31483;BME280;18103;52.246;8.052;2023-07-29T08:49:23;99523.13;;;20.00;85.39
31483;BME280;18103;52.246;8.052;2023-07-29T08:51:49;99525.25;;;20.12;85.40
31483;BME280;18103;52.246;8.052;2023-07-29T08:54:16;99523.38;;;20.12;85.18
31483;BME280;18103;52.246;8.052;2023-07-29T08:56:45;99524.16;;;19.86;83.58
31483;BME280;18103;52.246;8.052;2023-07-29T08:59:11;99521.94;;;19.96;84.70
31483;BME280;18103;52.246;8.052;2023-07-29T09:01:38;99512.44;;;20.07;84.24
31483;BME280;18103;52.246;8.052;2023-07-29T09:04:08;99507.94;;;20.21;83.70
31483;BME280;18103;52.246;8.052;2023-07-29T09:06:35;99511.84;;;20.18;83.22
31483;BME280;18103;52.246;8.052;2023-07-29T09:09:04;99508.34;;;20.11;84.12
31483;BME280;18103;52.246;8.052;2023-07-29T09:11:32;99509.16;;;20.18;84.01
31483;BME280;18103;52.246;8.052;2023-07-29T09:13:58;99512.25;;;20.15;83.22
31483;BME280;18103;52.246;8.052;2023-07-29T09:16:27;99507.31;;;20.19;83.81
31483;BME280;18103;52.246;8.052;2023-07-29T09:18:52;99506.66;;;20.10;83.10
31483;BME280;18103;52.246;8.052;2023-07-29T09:21:23;99509.81;;;20.21;83.15
31483;BME280;18103;52.246;8.052;2023-07-29T09:23:50;99502.59;;;20.28;83.67
31483;BME280;18103;52.246;8.052;2023-07-29T09:26:27;99504.22;;;20.35;82.07
31483;BME280;18103;52.246;8.052;2023-07-29T09:28:57;99502.59;;;20.28;80.10
31483;BME280;18103;52.246;8.052;2023-07-29T09:31:25;99510.44;;;20.36;81.20
31483;BME280;18103;52.246;8.052;2023-07-29T09:33:59;99506.72;;;20.24;78.77
31483;BME280;18103;52.246;8.052;2023-07-29T09:36:28;99500.31;;;20.18;77.32
31483;BME280;18103;52.246;8.052;2023-07-29T09:38:56;99503.00;;;20.18;78.47
31483;BME280;18103;52.246;8.052;2023-07-29T09:41:25;99502.59;;;20.41;79.03
31483;BME280;18103;52.246;8.052;2023-07-29T09:43:57;99498.06;;;20.48;79.51
31483;BME280;18103;52.246;8.052;2023-07-29T09:46:24;99504.44;;;20.47;78.09
31483;BME280;18103;52.246;8.052;2023-07-29T09:48:53;99506.09;;;20.62;78.50
31483;BME280;18103;52.246;8.052;2023-07-29T09:51:22;99507.97;;;20.75;78.08
31483;BME280;18103;52.246;8.052;2023-07-29T09:53:48;99512.94;;;20.78;76.34
31483;BME280;18103;52.246;8.052;2023-07-29T09:56:14;99515.78;;;20.83;77.65
31483;BME280;18103;52.246;8.052;2023-07-29T09:58:45;99513.53;;;20.87;76.03
31483;BME280;18103;52.246;8.052;2023-07-29T10:01:11;99512.25;;;21.02;76.49
31483;BME280;18103;52.246;8.052;2023-07-29T10:03:39;99517.41;;;21.04;77.04
31483;BME280;18103;52.246;8.052;2023-07-29T10:06:06;99509.78;;;21.08;77.06
31483;BME280;18103;52.246;8.052;2023-07-29T10:08:33;99510.41;;;21.10;75.53
31483;BME280;18103;52.246;8.052;2023-07-29T10:11:03;99514.91;;;21.23;74.84
31483;BME280;18103;52.246;8.052;2023-07-29T10:13:30;99515.50;;;21.25;75.45
31483;BME280;18103;52.246;8.052;2023-07-29T10:15:55;99508.25;;;21.39;75.49
31483;BME280;18103;52.246;8.052;2023-07-29T10:18:24;99521.88;;;21.37;75.33
31483;BME280;18103;52.246;8.052;2023-07-29T10:20:51;99518.16;;;21.45;74.95
31483;BME280;18103;52.246;8.052;2023-07-29T10:23:18;99515.03;;;21.55;74.57
31483;BME280;18103;52.246;8.052;2023-07-29T10:25:55;99520.56;;;21.60;72.99
31483;BME280;18103;52.246;8.052;2023-07-29T10:28:25;99512.06;;;21.69;72.53
31483;BME280;18103;52.246;8.052;2023-07-29T10:30:52;99513.72;;;21.70;72.58
31483;BME280;18103;52.246;8.052;2023-07-29T10:33:20;99513.53;;;21.65;73.81
31483;BME280;18103;52.246;8.052;2023-07-29T10:35:47;99513.38;;;21.53;72.24
31483;BME280;18103;52.246;8.052;2023-07-29T10:38:16;99519.56;;;21.54;74.12
31483;BME280;18103;52.246;8.052;2023-07-29T10:40:52;99514.19;;;21.54;71.74
31483;BME280;18103;52.246;8.052;2023-07-29T10:43:29;99516.47;;;21.50;72.50
31483;BME280;18103;52.246;8.052;2023-07-29T10:48:51;99514.41;;;21.59;72.98
31483;BME280;18103;52.246;8.052;2023-07-29T10:51:36;99514.16;;;21.67;72.30
31483;BME280;18103;52.246;8.052;2023-07-29T10:56:31;99517.09;;;21.46;69.64
31483;BME280;18103;52.246;8.052;2023-07-29T11:01:57;99517.72;;;21.55;71.37
31483;BME280;18103;52.246;8.052;2023-07-29T11:04:27;99508.78;;;21.67;70.09
31483;BME280;18103;52.246;8.052;2023-07-29T11:17:37;99500.25;;;21.77;70.47
31483;BME280;18103;52.246;8.052;2023-07-29T11:20:04;99507.69;;;21.75;70.87
31483;BME280;18103;52.246;8.052;2023-07-29T11:22:30;99501.28;;;21.76;69.88
31483;BME280;18103;52.246;8.052;2023-07-29T11:24:58;99505.63;;;21.77;70.47
31483;BME280;18103;52.246;8.052;2023-07-29T11:27:26;99503.16;;;21.76;69.53
31483;BME280;18103;52.246;8.052;2023-07-29T11:30:00;99503.38;;;21.74;68.40
31483;BME280;18103;52.246;8.052;2023-07-29T11:32:28;99487.19;;;21.81;68.10
31483;BME280;18103;52.246;8.052;2023-07-29T11:34:56;99492.78;;;21.79;68.45
31483;BME280;18103;52.246;8.052;2023-07-29T11:37:24;99488.66;;;21.77;69.37
31483;BME280;18103;52.246;8.052;2023-07-29T11:39:49;99482.06;;;21.73;67.93
31483;BME280;18103;52.246;8.052;2023-07-29T11:42:18;99486.56;;;21.85;69.87
31483;BME280;18103;52.246;8.052;2023-07-29T11:44:45;99482.09;;;22.04;69.04
31483;BME280;18103;52.246;8.052;2023-07-29T11:47:12;99489.34;;;22.04;70.09
31483;BME280;18103;52.246;8.052;2023-07-29T11:49:41;99490.13;;;22.11;69.65
31483;BME280;18103;52.246;8.052;2023-07-29T11:52:09;99496.75;;;22.09;69.58
31483;BME280;18103;52.246;8.052;2023-07-29T11:54:36;99489.34;;;22.04;70.11
31483;BME280;18103;52.246;8.052;2023-07-29T11:57:06;99492.69;;;21.99;67.62
31483;BME280;18103;52.246;8.052;2023-07-29T11:59:33;99495.75;;;22.03;69.40
31483;BME280;18103;52.246;8.052;2023-07-29T12:02:00;99483.75;;;22.05;69.76
31483;BME280;18103;52.246;8.052;2023-07-29T12:04:29;99491.22;;;22.03;68.61
31483;BME280;18103;52.246;8.052;2023-07-29T12:06:55;99494.91;;;22.09;68.71
31483;BME280;18103;52.246;8.052;2023-07-29T12:09:23;99502.31;;;22.14;68.72
31483;BME280;18103;52.246;8.052;2023-07-29T12:11:49;99506.44;;;22.16;69.97
31483;BME280;18103;52.246;8.052;2023-07-29T12:14:16;99506.44;;;22.16;70.42
31483;BME280;18103;52.246;8.052;2023-07-29T12:16:44;99507.75;;;22.32;70.22
31483;BME280;18103;52.246;8.052;2023-07-29T12:19:12;99504.00;;;22.40;69.99
31483;BME280;18103;52.246;8.052;2023-07-29T12:21:42;99501.16;;;22.35;67.50
31483;BME280;18103;52.246;8.052;2023-07-29T12:24:07;99499.81;;;22.19;67.92
31483;BME280;18103;52.246;8.052;2023-07-29T12:26:33;99504.72;;;22.22;68.75
31483;BME280;18103;52.246;8.052;2023-07-29T12:29:11;99493.66;;;22.37;69.75
31483;BME280;18103;52.246;8.052;2023-07-29T12:31:37;99504.91;;;22.52;69.73
31483;BME280;18103;52.246;8.052;2023-07-29T12:34:02;99503.66;;;22.55;68.02
31483;BME280;18103;52.246;8.052;2023-07-29T12:36:45;99506.47;;;22.67;66.88
31483;BME280;18103;52.246;8.052;2023-07-29T12:41:46;99505.00;;;22.71;67.08
31483;BME280;18103;52.246;8.052;2023-07-29T12:44:12;99503.06;;;22.78;68.86
31483;BME280;18103;52.246;8.052;2023-07-29T12:46:38;99506.56;;;22.79;66.93
31483;BME280;18103;52.246;8.052;2023-07-29T12:49:03;99500.66;;;22.88;66.70
31483;BME280;18103;52.246;8.052;2023-07-29T12:51:28;99501.81;;;22.99;65.00
31483;BME280;18103;52.246;8.052;2023-07-29T12:53:54;99508.22;;;22.98;67.08
31483;BME280;18103;52.246;8.052;2023-07-29T12:56:22;99500.38;;;22.97;65.72
31483;BME280;18103;52.246;8.052;2023-07-29T12:58:47;99499.88;;;23.06;64.59
31483;BME280;18103;52.246;8.052;2023-07-29T13:01:16;99495.66;;;23.17;65.62
31483;BME280;18103;52.246;8.052;2023-07-29T13:03:45;99498.78;;;23.33;66.30
31483;BME280;18103;52.246;8.052;2023-07-29T13:06:10;99500.84;;;23.31;66.46
31483;BME280;18103;52.246;8.052;2023-07-29T13:08:36;99493.47;;;23.26;66.28
31483;BME280;18103;52.246;8.052;2023-07-29T13:11:02;99503.50;;;23.19;64.88
31483;BME280;18103;52.246;8.052;2023-07-29T13:13:30;99501.63;;;23.19;65.20
31483;BME280;18103;52.246;8.052;2023-07-29T13:15:58;99506.66;;;23.16;65.13
31483;BME280;18103;52.246;8.052;2023-07-29T13:18:24;99500.63;;;23.14;65.94
31483;BME280;18103;52.246;8.052;2023-07-29T13:20:49;99498.78;;;23.14;64.69
31483;BME280;18103;52.246;8.052;2023-07-29T13:23:15;99509.03;;;23.24;65.31
31483;BME280;18103;52.246;8.052;2023-07-29T13:25:41;99504.91;;;23.21;64.68